sensor_id;sensor_type;location;lat;lon;timestamp;P1;durP1;ratioP1;P2;durP2;ratioP2
75928;SDS011;64606;44.062;2.986;2023-05-07T00:00:02;1.00;;;0.90;;
75928;SDS011;64606;44.062;2.986;2023-05-07T00:02:32;2.95;;;1.00;;
75928;SDS011;64606;44.062;2.986;2023-05-07T00:04:58;2.15;;;1.00;;
75928;SDS011;64606;44.062;2.986;2023-05-07T00:07:24;2.80;;;1.10;;
75928;SDS011;64606;44.062;2.986;2023-05-07T00:09:50;2.70;;;1.00;;
75928;SDS011;64606;44.062;2.986;2023-05-07T00:12:16;0.70;;;0.70;;
75928;SDS011;64606;44.062;2.986;2023-05-07T00:14:42;2.28;;;1.05;;
75928;SDS011;64606;44.062;2.986;2023-05-07T00:17:08;2.80;;;1.17;;
75928;SDS011;64606;44.062;2.986;2023-05-07T00:19:34;3.55;;;1.00;;
75928;SDS011;64606;44.062;2.986;2023-05-07T00:22:00;4.35;;;1.15;;
75928;SDS011;64606;44.062;2.986;2023-05-07T00:24:27;1.92;;;0.88;;
75928;SDS011;64606;44.062;2.986;2023-05-07T00:26:53;1.90;;;1.13;;
75928;SDS011;64606;44.062;2.986;2023-05-07T00:29:19;1.38;;;1.08;;
75928;SDS011;64606;44.062;2.986;2023-05-07T00:31:45;3.08;;;0.93;;
75928;SDS011;64606;44.062;2.986;2023-05-07T00:34:11;3.63;;;1.00;;
75928;SDS011;64606;44.062;2.986;2023-05-07T00:36:37;1.45;;;0.80;;
75928;SDS011;64606;44.062;2.986;2023-05-07T00:39:03;1.20;;;0.90;;
75928;SDS011;64606;44.062;2.986;2023-05-07T00:41:29;2.47;;;1.10;;
75928;SDS011;64606;44.062;2.986;2023-05-07T00:43:56;1.50;;;1.05;;
75928;SDS011;64606;44.062;2.986;2023-05-07T00:46:22;4.43;;;1.23;;
75928;SDS011;64606;44.062;2.986;2023-05-07T00:48:52;1.60;;;1.10;;
75928;SDS011;64606;44.062;2.986;2023-05-07T00:51:18;3.90;;;1.30;;
75928;SDS011;64606;44.062;2.986;2023-05-07T00:53:45;5.10;;;1.45;;
75928;SDS011;64606;44.062;2.986;2023-05-07T00:56:12;2.15;;;1.20;;
75928;SDS011;64606;44.062;2.986;2023-05-07T00:58:38;3.83;;;1.40;;
75928;SDS011;64606;44.062;2.986;2023-05-07T01:01:04;1.63;;;1.05;;
75928;SDS011;64606;44.062;2.986;2023-05-07T01:03:31;2.42;;;1.70;;
75928;SDS011;64606;44.062;2.986;2023-05-07T01:05:57;2.28;;;1.50;;
75928;SDS011;64606;44.062;2.986;2023-05-07T01:08:25;2.30;;;1.33;;
75928;SDS011;64606;44.062;2.986;2023-05-07T01:10:53;2.63;;;1.40;;
75928;SDS011;64606;44.062;2.986;2023-05-07T01:13:20;3.15;;;1.40;;
75928;SDS011;64606;44.062;2.986;2023-05-07T01:15:46;1.67;;;1.25;;
75928;SDS011;64606;44.062;2.986;2023-05-07T01:18:12;2.75;;;1.50;;
75928;SDS011;64606;44.062;2.986;2023-05-07T01:20:39;1.95;;;1.45;;
75928;SDS011;64606;44.062;2.986;2023-05-07T01:23:05;4.43;;;1.50;;
75928;SDS011;64606;44.062;2.986;2023-05-07T01:25:32;1.85;;;1.40;;
75928;SDS011;64606;44.062;2.986;2023-05-07T01:27:59;2.17;;;1.27;;
75928;SDS011;64606;44.062;2.986;2023-05-07T01:30:26;4.15;;;1.35;;
75928;SDS011;64606;44.062;2.986;2023-05-07T01:32:56;3.50;;;1.30;;
75928;SDS011;64606;44.062;2.986;2023-05-07T01:35:24;6.93;;;2.85;;
75928;SDS011;64606;44.062;2.986;2023-05-07T01:37:51;4.10;;;2.22;;
75928;SDS011;64606;44.062;2.986;2023-05-07T01:40:17;7.57;;;3.30;;
75928;SDS011;64606;44.062;2.986;2023-05-07T01:42:43;7.07;;;3.15;;
75928;SDS011;64606;44.062;2.986;2023-05-07T01:45:09;8.00;;;3.60;;
75928;SDS011;64606;44.062;2.986;2023-05-07T01:47:36;5.60;;;3.00;;
75928;SDS011;64606;44.062;2.986;2023-05-07T01:50:03;6.82;;;3.42;;
75928;SDS011;64606;44.062;2.986;2023-05-07T01:52:30;8.13;;;3.70;;
75928;SDS011;64606;44.062;2.986;2023-05-07T01:54:56;6.57;;;3.60;;
75928;SDS011;64606;44.062;2.986;2023-05-07T01:57:22;9.38;;;3.88;;
75928;SDS011;64606;44.062;2.986;2023-05-07T01:59:49;5.88;;;3.00;;
75928;SDS011;64606;44.062;2.986;2023-05-07T02:02:15;6.85;;;2.47;;
75928;SDS011;64606;44.062;2.986;2023-05-07T02:04:41;6.97;;;2.45;;
75928;SDS011;64606;44.062;2.986;2023-05-07T02:07:07;5.00;;;2.30;;
75928;SDS011;64606;44.062;2.986;2023-05-07T02:09:33;7.25;;;2.45;;
75928;SDS011;64606;44.062;2.986;2023-05-07T02:11:59;7.22;;;2.90;;
75928;SDS011;64606;44.062;2.986;2023-05-07T02:14:26;4.75;;;2.47;;
75928;SDS011;64606;44.062;2.986;2023-05-07T02:16:52;6.90;;;2.70;;
75928;SDS011;64606;44.062;2.986;2023-05-07T02:19:18;4.95;;;2.15;;
75928;SDS011;64606;44.062;2.986;2023-05-07T02:21:46;6.20;;;2.42;;
75928;SDS011;64606;44.062;2.986;2023-05-07T02:24:12;5.47;;;1.98;;
75928;SDS011;64606;44.062;2.986;2023-05-07T02:26:41;4.25;;;1.58;;
75928;SDS011;64606;44.062;2.986;2023-05-07T02:29:07;3.78;;;1.85;;
75928;SDS011;64606;44.062;2.986;2023-05-07T02:31:34;3.40;;;1.65;;
75928;SDS011;64606;44.062;2.986;2023-05-07T02:34:00;3.53;;;1.55;;
75928;SDS011;64606;44.062;2.986;2023-05-07T02:36:26;8.18;;;2.40;;
75928;SDS011;64606;44.062;2.986;2023-05-07T02:38:53;4.25;;;1.90;;
75928;SDS011;64606;44.062;2.986;2023-05-07T02:41:19;6.10;;;1.70;;
75928;SDS011;64606;44.062;2.986;2023-05-07T02:43:45;7.90;;;1.80;;
75928;SDS011;64606;44.062;2.986;2023-05-07T02:46:11;5.45;;;1.60;;
75928;SDS011;64606;44.062;2.986;2023-05-07T02:48:37;4.32;;;1.58;;
75928;SDS011;64606;44.062;2.986;2023-05-07T02:51:04;9.48;;;1.70;;
75928;SDS011;64606;44.062;2.986;2023-05-07T02:53:30;8.50;;;1.90;;
75928;SDS011;64606;44.062;2.986;2023-05-07T02:55:57;5.80;;;1.70;;
75928;SDS011;64606;44.062;2.986;2023-05-07T02:58:23;5.97;;;1.40;;
75928;SDS011;64606;44.062;2.986;2023-05-07T03:00:50;5.75;;;1.80;;
75928;SDS011;64606;44.062;2.986;2023-05-07T03:03:16;6.32;;;2.10;;
75928;SDS011;64606;44.062;2.986;2023-05-07T03:05:42;8.30;;;1.83;;
75928;SDS011;64606;44.062;2.986;2023-05-07T03:08:08;3.80;;;1.63;;
75928;SDS011;64606;44.062;2.986;2023-05-07T03:10:35;6.90;;;2.22;;
75928;SDS011;64606;44.062;2.986;2023-05-07T03:13:01;8.52;;;2.40;;
75928;SDS011;64606;44.062;2.986;2023-05-07T03:15:27;5.68;;;1.77;;
75928;SDS011;64606;44.062;2.986;2023-05-07T03:17:53;4.53;;;1.70;;
75928;SDS011;64606;44.062;2.986;2023-05-07T03:20:19;7.32;;;2.00;;
75928;SDS011;64606;44.062;2.986;2023-05-07T03:22:46;6.30;;;1.98;;
75928;SDS011;64606;44.062;2.986;2023-05-07T03:25:12;5.78;;;2.30;;
75928;SDS011;64606;44.062;2.986;2023-05-07T03:27:39;5.90;;;2.10;;
75928;SDS011;64606;44.062;2.986;2023-05-07T03:30:07;5.35;;;1.90;;
75928;SDS011;64606;44.062;2.986;2023-05-07T03:32:34;6.68;;;2.20;;
75928;SDS011;64606;44.062;2.986;2023-05-07T03:35:03;6.63;;;1.77;;
75928;SDS011;64606;44.062;2.986;2023-05-07T03:37:29;3.10;;;1.60;;
75928;SDS011;64606;44.062;2.986;2023-05-07T03:39:55;5.25;;;1.98;;
75928;SDS011;64606;44.062;2.986;2023-05-07T03:42:21;3.88;;;1.73;;
75928;SDS011;64606;44.062;2.986;2023-05-07T03:44:47;5.32;;;1.73;;
75928;SDS011;64606;44.062;2.986;2023-05-07T03:47:13;4.10;;;1.88;;
75928;SDS011;64606;44.062;2.986;2023-05-07T03:49:40;5.28;;;1.80;;
75928;SDS011;64606;44.062;2.986;2023-05-07T03:52:06;3.15;;;1.67;;
75928;SDS011;64606;44.062;2.986;2023-05-07T03:54:32;3.83;;;1.48;;
75928;SDS011;64606;44.062;2.986;2023-05-07T03:56:58;4.40;;;1.77;;
75928;SDS011;64606;44.062;2.986;2023-05-07T03:59:24;3.90;;;1.80;;
75928;SDS011;64606;44.062;2.986;2023-05-07T04:01:50;5.80;;;1.80;;
75928;SDS011;64606;44.062;2.986;2023-05-07T04:04:17;5.80;;;1.80;;
75928;SDS011;64606;44.062;2.986;2023-05-07T04:06:43;2.88;;;1.10;;
75928;SDS011;64606;44.062;2.986;2023-05-07T04:09:09;6.20;;;1.98;;
75928;SDS011;64606;44.062;2.986;2023-05-07T04:11:35;4.82;;;1.90;;
75928;SDS011;64606;44.062;2.986;2023-05-07T04:14:01;8.05;;;1.58;;
75928;SDS011;64606;44.062;2.986;2023-05-07T04:16:27;4.00;;;1.40;;
75928;SDS011;64606;44.062;2.986;2023-05-07T04:18:53;7.50;;;1.73;;
75928;SDS011;64606;44.062;2.986;2023-05-07T04:21:20;2.33;;;1.33;;
75928;SDS011;64606;44.062;2.986;2023-05-07T04:23:47;3.67;;;1.40;;
75928;SDS011;64606;44.062;2.986;2023-05-07T04:26:13;3.50;;;1.48;;
75928;SDS011;64606;44.062;2.986;2023-05-07T04:28:40;4.18;;;1.90;;
75928;SDS011;64606;44.062;2.986;2023-05-07T04:31:06;3.55;;;1.60;;
75928;SDS011;64606;44.062;2.986;2023-05-07T04:33:32;2.45;;;1.52;;
75928;SDS011;64606;44.062;2.986;2023-05-07T04:36:01;4.10;;;1.92;;
75928;SDS011;64606;44.062;2.986;2023-05-07T04:38:31;6.18;;;1.88;;
75928;SDS011;64606;44.062;2.986;2023-05-07T04:40:58;6.30;;;1.92;;
75928;SDS011;64606;44.062;2.986;2023-05-07T04:43:24;8.50;;;2.13;;
75928;SDS011;64606;44.062;2.986;2023-05-07T04:45:51;4.55;;;1.73;;
75928;SDS011;64606;44.062;2.986;2023-05-07T04:48:17;6.15;;;1.70;;
75928;SDS011;64606;44.062;2.986;2023-05-07T04:50:48;6.38;;;2.70;;
75928;SDS011;64606;44.062;2.986;2023-05-07T04:53:14;7.00;;;2.00;;
75928;SDS011;64606;44.062;2.986;2023-05-07T04:55:40;5.20;;;2.17;;
75928;SDS011;64606;44.062;2.986;2023-05-07T04:58:07;5.80;;;2.30;;
75928;SDS011;64606;44.062;2.986;2023-05-07T05:00:33;7.13;;;2.28;;
75928;SDS011;64606;44.062;2.986;2023-05-07T05:03:00;8.05;;;1.73;;
75928;SDS011;64606;44.062;2.986;2023-05-07T05:05:26;6.40;;;1.85;;
75928;SDS011;64606;44.062;2.986;2023-05-07T05:07:52;5.00;;;1.90;;
75928;SDS011;64606;44.062;2.986;2023-05-07T05:10:18;2.85;;;1.50;;
75928;SDS011;64606;44.062;2.986;2023-05-07T05:12:44;4.85;;;2.28;;
75928;SDS011;64606;44.062;2.986;2023-05-07T05:15:13;6.50;;;1.85;;
75928;SDS011;64606;44.062;2.986;2023-05-07T05:17:40;6.07;;;2.08;;
75928;SDS011;64606;44.062;2.986;2023-05-07T05:20:06;3.38;;;2.00;;
75928;SDS011;64606;44.062;2.986;2023-05-07T05:22:32;7.32;;;2.17;;
75928;SDS011;64606;44.062;2.986;2023-05-07T05:24:59;2.95;;;1.58;;
75928;SDS011;64606;44.062;2.986;2023-05-07T05:27:26;2.90;;;1.80;;
75928;SDS011;64606;44.062;2.986;2023-05-07T05:29:52;2.45;;;1.40;;
75928;SDS011;64606;44.062;2.986;2023-05-07T05:32:18;5.78;;;1.65;;
75928;SDS011;64606;44.062;2.986;2023-05-07T05:34:44;4.70;;;1.30;;
75928;SDS011;64606;44.062;2.986;2023-05-07T05:37:10;4.70;;;1.52;;
75928;SDS011;64606;44.062;2.986;2023-05-07T05:39:36;3.92;;;1.60;;
75928;SDS011;64606;44.062;2.986;2023-05-07T05:42:02;4.07;;;1.60;;
75928;SDS011;64606;44.062;2.986;2023-05-07T05:44:28;4.28;;;1.33;;
75928;SDS011;64606;44.062;2.986;2023-05-07T05:46:54;2.75;;;1.63;;
75928;SDS011;64606;44.062;2.986;2023-05-07T05:49:22;3.90;;;1.60;;
75928;SDS011;64606;44.062;2.986;2023-05-07T05:51:48;2.58;;;1.25;;
75928;SDS011;64606;44.062;2.986;2023-05-07T05:54:15;3.67;;;1.30;;
75928;SDS011;64606;44.062;2.986;2023-05-07T05:56:41;3.20;;;1.35;;
75928;SDS011;64606;44.062;2.986;2023-05-07T05:59:07;2.85;;;1.38;;
75928;SDS011;64606;44.062;2.986;2023-05-07T06:01:33;3.13;;;1.50;;
75928;SDS011;64606;44.062;2.986;2023-05-07T06:03:59;4.97;;;1.52;;
75928;SDS011;64606;44.062;2.986;2023-05-07T06:06:26;3.88;;;1.30;;
75928;SDS011;64606;44.062;2.986;2023-05-07T06:08:52;7.55;;;1.88;;
75928;SDS011;64606;44.062;2.986;2023-05-07T06:11:18;6.03;;;1.70;;
75928;SDS011;64606;44.062;2.986;2023-05-07T06:13:45;4.07;;;1.67;;
75928;SDS011;64606;44.062;2.986;2023-05-07T06:16:11;3.78;;;1.35;;
75928;SDS011;64606;44.062;2.986;2023-05-07T06:18:37;7.85;;;2.60;;
75928;SDS011;64606;44.062;2.986;2023-05-07T06:21:03;5.88;;;1.50;;
75928;SDS011;64606;44.062;2.986;2023-05-07T06:23:29;3.00;;;1.50;;
75928;SDS011;64606;44.062;2.986;2023-05-07T06:25:55;8.88;;;1.85;;
75928;SDS011;64606;44.062;2.986;2023-05-07T06:28:21;7.63;;;2.13;;
75928;SDS011;64606;44.062;2.986;2023-05-07T06:30:48;5.18;;;1.70;;
75928;SDS011;64606;44.062;2.986;2023-05-07T06:33:15;4.70;;;1.75;;
75928;SDS011;64606;44.062;2.986;2023-05-07T06:35:41;2.78;;;1.10;;
75928;SDS011;64606;44.062;2.986;2023-05-07T06:38:07;5.13;;;1.65;;
75928;SDS011;64606;44.062;2.986;2023-05-07T06:40:33;4.35;;;1.67;;
75928;SDS011;64606;44.062;2.986;2023-05-07T06:42:59;3.88;;;1.70;;
75928;SDS011;64606;44.062;2.986;2023-05-07T06:45:25;3.58;;;1.30;;
75928;SDS011;64606;44.062;2.986;2023-05-07T06:47:51;4.18;;;1.33;;
75928;SDS011;64606;44.062;2.986;2023-05-07T06:50:18;3.03;;;1.60;;
75928;SDS011;64606;44.062;2.986;2023-05-07T06:52:44;7.43;;;2.25;;
75928;SDS011;64606;44.062;2.986;2023-05-07T06:55:10;5.88;;;1.85;;
75928;SDS011;64606;44.062;2.986;2023-05-07T06:57:36;4.72;;;1.50;;
75928;SDS011;64606;44.062;2.986;2023-05-07T07:00:03;4.30;;;1.63;;
75928;SDS011;64606;44.062;2.986;2023-05-07T07:02:31;5.00;;;1.63;;
75928;SDS011;64606;44.062;2.986;2023-05-07T07:04:58;6.30;;;1.67;;
75928;SDS011;64606;44.062;2.986;2023-05-07T07:07:24;5.82;;;1.52;;
75928;SDS011;64606;44.062;2.986;2023-05-07T07:09:50;3.47;;;1.30;;
75928;SDS011;64606;44.062;2.986;2023-05-07T07:12:16;7.28;;;1.98;;
75928;SDS011;64606;44.062;2.986;2023-05-07T07:14:42;5.38;;;1.75;;
75928;SDS011;64606;44.062;2.986;2023-05-07T07:17:08;3.38;;;1.50;;
75928;SDS011;64606;44.062;2.986;2023-05-07T07:19:35;5.10;;;1.33;;
75928;SDS011;64606;44.062;2.986;2023-05-07T07:22:01;2.33;;;1.40;;
75928;SDS011;64606;44.062;2.986;2023-05-07T07:24:27;4.07;;;1.50;;
75928;SDS011;64606;44.062;2.986;2023-05-07T07:26:53;4.47;;;1.40;;
75928;SDS011;64606;44.062;2.986;2023-05-07T07:29:20;3.53;;;1.35;;
75928;SDS011;64606;44.062;2.986;2023-05-07T07:31:47;5.43;;;1.55;;
75928;SDS011;64606;44.062;2.986;2023-05-07T07:34:14;2.83;;;1.35;;
75928;SDS011;64606;44.062;2.986;2023-05-07T07:36:40;4.93;;;1.30;;
75928;SDS011;64606;44.062;2.986;2023-05-07T07:39:06;3.95;;;1.30;;
75928;SDS011;64606;44.062;2.986;2023-05-07T07:41:32;3.40;;;1.40;;
75928;SDS011;64606;44.062;2.986;2023-05-07T07:43:59;2.40;;;1.40;;
75928;SDS011;64606;44.062;2.986;2023-05-07T07:46:25;2.42;;;1.30;;
75928;SDS011;64606;44.062;2.986;2023-05-07T07:48:51;1.85;;;1.00;;
75928;SDS011;64606;44.062;2.986;2023-05-07T07:51:17;4.93;;;1.67;;
75928;SDS011;64606;44.062;2.986;2023-05-07T07:53:43;5.05;;;1.63;;
75928;SDS011;64606;44.062;2.986;2023-05-07T07:56:10;4.35;;;1.20;;
75928;SDS011;64606;44.062;2.986;2023-05-07T07:58:37;4.57;;;1.48;;
75928;SDS011;64606;44.062;2.986;2023-05-07T08:01:04;6.15;;;2.35;;
75928;SDS011;64606;44.062;2.986;2023-05-07T08:03:30;5.35;;;1.80;;
75928;SDS011;64606;44.062;2.986;2023-05-07T08:05:57;4.50;;;1.23;;
75928;SDS011;64606;44.062;2.986;2023-05-07T08:08:24;2.35;;;1.10;;
75928;SDS011;64606;44.062;2.986;2023-05-07T08:10:50;3.78;;;1.60;;
75928;SDS011;64606;44.062;2.986;2023-05-07T08:13:17;6.03;;;1.75;;
75928;SDS011;64606;44.062;2.986;2023-05-07T08:15:43;4.43;;;1.38;;
75928;SDS011;64606;44.062;2.986;2023-05-07T08:18:09;3.10;;;1.20;;
75928;SDS011;64606;44.062;2.986;2023-05-07T08:20:35;5.30;;;1.63;;
75928;SDS011;64606;44.062;2.986;2023-05-07T08:23:04;3.90;;;1.25;;
75928;SDS011;64606;44.062;2.986;2023-05-07T08:25:36;3.95;;;1.30;;
75928;SDS011;64606;44.062;2.986;2023-05-07T08:28:02;8.75;;;2.10;;
75928;SDS011;64606;44.062;2.986;2023-05-07T08:30:28;4.90;;;1.60;;
75928;SDS011;64606;44.062;2.986;2023-05-07T08:32:54;3.92;;;1.08;;
75928;SDS011;64606;44.062;2.986;2023-05-07T08:35:21;2.58;;;1.10;;
75928;SDS011;64606;44.062;2.986;2023-05-07T08:37:47;5.20;;;1.40;;
75928;SDS011;64606;44.062;2.986;2023-05-07T08:40:13;2.88;;;1.48;;
75928;SDS011;64606;44.062;2.986;2023-05-07T08:42:39;3.25;;;1.08;;
75928;SDS011;64606;44.062;2.986;2023-05-07T08:45:08;2.10;;;1.20;;
75928;SDS011;64606;44.062;2.986;2023-05-07T08:47:47;2.42;;;1.20;;
75928;SDS011;64606;44.062;2.986;2023-05-07T08:50:15;2.92;;;1.30;;
75928;SDS011;64606;44.062;2.986;2023-05-07T08:52:41;3.47;;;1.45;;
75928;SDS011;64606;44.062;2.986;2023-05-07T08:55:08;2.85;;;0.90;;
75928;SDS011;64606;44.062;2.986;2023-05-07T08:57:34;3.20;;;1.33;;
75928;SDS011;64606;44.062;2.986;2023-05-07T09:00:01;8.38;;;1.40;;
75928;SDS011;64606;44.062;2.986;2023-05-07T09:02:28;3.13;;;1.50;;
75928;SDS011;64606;44.062;2.986;2023-05-07T09:04:54;6.80;;;2.05;;
75928;SDS011;64606;44.062;2.986;2023-05-07T09:07:21;3.35;;;1.38;;
75928;SDS011;64606;44.062;2.986;2023-05-07T09:09:47;6.80;;;1.30;;
75928;SDS011;64606;44.062;2.986;2023-05-07T09:12:13;2.13;;;1.10;;
75928;SDS011;64606;44.062;2.986;2023-05-07T09:14:39;1.20;;;1.10;;
75928;SDS011;64606;44.062;2.986;2023-05-07T09:17:05;3.40;;;1.02;;
75928;SDS011;64606;44.062;2.986;2023-05-07T09:19:31;2.22;;;0.90;;
75928;SDS011;64606;44.062;2.986;2023-05-07T09:21:58;1.65;;;0.80;;
75928;SDS011;64606;44.062;2.986;2023-05-07T09:24:25;1.40;;;0.77;;
75928;SDS011;64606;44.062;2.986;2023-05-07T09:26:51;2.45;;;0.90;;
75928;SDS011;64606;44.062;2.986;2023-05-07T09:29:17;2.00;;;0.88;;
75928;SDS011;64606;44.062;2.986;2023-05-07T09:31:43;1.67;;;0.80;;
75928;SDS011;64606;44.062;2.986;2023-05-07T09:34:10;1.98;;;0.80;;
75928;SDS011;64606;44.062;2.986;2023-05-07T09:36:36;2.75;;;1.00;;
75928;SDS011;64606;44.062;2.986;2023-05-07T09:39:02;0.93;;;0.73;;
75928;SDS011;64606;44.062;2.986;2023-05-07T09:41:29;1.40;;;0.82;;
75928;SDS011;64606;44.062;2.986;2023-05-07T09:43:58;0.77;;;0.70;;
75928;SDS011;64606;44.062;2.986;2023-05-07T09:46:29;2.60;;;0.70;;
75928;SDS011;64606;44.062;2.986;2023-05-07T09:48:59;3.17;;;1.35;;
75928;SDS011;64606;44.062;2.986;2023-05-07T09:51:32;2.35;;;0.88;;
75928;SDS011;64606;44.062;2.986;2023-05-07T09:54:00;2.35;;;0.90;;
75928;SDS011;64606;44.062;2.986;2023-05-07T09:56:29;2.58;;;0.70;;
75928;SDS011;64606;44.062;2.986;2023-05-07T09:58:56;2.55;;;0.70;;
75928;SDS011;64606;44.062;2.986;2023-05-07T10:01:23;1.85;;;0.70;;
75928;SDS011;64606;44.062;2.986;2023-05-07T10:03:50;1.98;;;0.82;;
75928;SDS011;64606;44.062;2.986;2023-05-07T10:06:17;0.77;;;0.60;;
75928;SDS011;64606;44.062;2.986;2023-05-07T10:08:43;1.88;;;0.70;;
75928;SDS011;64606;44.062;2.986;2023-05-07T10:11:10;1.02;;;0.70;;
75928;SDS011;64606;44.062;2.986;2023-05-07T10:13:36;1.17;;;0.68;;
75928;SDS011;64606;44.062;2.986;2023-05-07T10:16:03;2.50;;;0.80;;
75928;SDS011;64606;44.062;2.986;2023-05-07T10:18:30;1.85;;;0.88;;
75928;SDS011;64606;44.062;2.986;2023-05-07T10:21:16;2.83;;;0.75;;
75928;SDS011;64606;44.062;2.986;2023-05-07T10:23:48;1.70;;;0.82;;
75928;SDS011;64606;44.062;2.986;2023-05-07T10:26:15;0.90;;;0.50;;
75928;SDS011;64606;44.062;2.986;2023-05-07T10:28:45;1.90;;;0.60;;
75928;SDS011;64606;44.062;2.986;2023-05-07T10:33:48;1.92;;;0.68;;
75928;SDS011;64606;44.062;2.986;2023-05-07T10:36:15;2.53;;;0.82;;
75928;SDS011;64606;44.062;2.986;2023-05-07T10:38:41;1.08;;;0.65;;
75928;SDS011;64606;44.062;2.986;2023-05-07T10:41:08;3.13;;;0.75;;
75928;SDS011;64606;44.062;2.986;2023-05-07T10:43:38;6.28;;;0.75;;
75928;SDS011;64606;44.062;2.986;2023-05-07T10:46:13;1.20;;;0.70;;
75928;SDS011;64606;44.062;2.986;2023-05-07T10:51:19;2.45;;;1.10;;
75928;SDS011;64606;44.062;2.986;2023-05-07T10:53:48;2.70;;;0.95;;
75928;SDS011;64606;44.062;2.986;2023-05-07T10:58:43;2.47;;;0.80;;
75928;SDS011;64606;44.062;2.986;2023-05-07T11:01:10;2.80;;;0.88;;
75928;SDS011;64606;44.062;2.986;2023-05-07T11:06:24;4.93;;;1.15;;
75928;SDS011;64606;44.062;2.986;2023-05-07T11:11:19;3.60;;;0.80;;
75928;SDS011;64606;44.062;2.986;2023-05-07T11:13:46;2.72;;;1.00;;
75928;SDS011;64606;44.062;2.986;2023-05-07T11:16:17;4.88;;;1.10;;
75928;SDS011;64606;44.062;2.986;2023-05-07T11:18:47;4.95;;;1.00;;
75928;SDS011;64606;44.062;2.986;2023-05-07T11:21:31;3.97;;;1.30;;
75928;SDS011;64606;44.062;2.986;2023-05-07T11:23:58;5.32;;;0.85;;
75928;SDS011;64606;44.062;2.986;2023-05-07T11:26:24;2.22;;;0.90;;
75928;SDS011;64606;44.062;2.986;2023-05-07T11:28:50;3.63;;;0.95;;
75928;SDS011;64606;44.062;2.986;2023-05-07T11:31:20;2.28;;;1.05;;
75928;SDS011;64606;44.062;2.986;2023-05-07T11:33:47;2.00;;;0.90;;
75928;SDS011;64606;44.062;2.986;2023-05-07T11:36:14;2.55;;;0.90;;
75928;SDS011;64606;44.062;2.986;2023-05-07T11:38:40;2.72;;;0.95;;
75928;SDS011;64606;44.062;2.986;2023-05-07T11:41:07;3.17;;;1.00;;
75928;SDS011;64606;44.062;2.986;2023-05-07T11:43:33;1.63;;;0.75;;
75928;SDS011;64606;44.062;2.986;2023-05-07T11:46:13;2.22;;;1.00;;
75928;SDS011;64606;44.062;2.986;2023-05-07T11:51:06;2.15;;;0.90;;
75928;SDS011;64606;44.062;2.986;2023-05-07T11:53:39;2.83;;;1.00;;
75928;SDS011;64606;44.062;2.986;2023-05-07T11:56:06;1.90;;;0.90;;
75928;SDS011;64606;44.062;2.986;2023-05-07T11:58:33;2.53;;;0.95;;
75928;SDS011;64606;44.062;2.986;2023-05-07T12:00:59;2.17;;;0.77;;
75928;SDS011;64606;44.062;2.986;2023-05-07T12:03:25;3.67;;;1.15;;
75928;SDS011;64606;44.062;2.986;2023-05-07T12:05:51;5.50;;;1.20;;
75928;SDS011;64606;44.062;2.986;2023-05-07T12:08:18;3.28;;;1.00;;
75928;SDS011;64606;44.062;2.986;2023-05-07T12:10:45;4.45;;;1.10;;
75928;SDS011;64606;44.062;2.986;2023-05-07T12:13:16;2.17;;;0.90;;
75928;SDS011;64606;44.062;2.986;2023-05-07T12:15:42;4.88;;;1.13;;
75928;SDS011;64606;44.062;2.986;2023-05-07T12:18:08;2.63;;;0.80;;
75928;SDS011;64606;44.062;2.986;2023-05-07T12:20:35;3.90;;;1.05;;
75928;SDS011;64606;44.062;2.986;2023-05-07T12:23:02;3.75;;;0.98;;
75928;SDS011;64606;44.062;2.986;2023-05-07T12:25:41;3.55;;;1.00;;
75928;SDS011;64606;44.062;2.986;2023-05-07T12:28:14;3.10;;;1.25;;
75928;SDS011;64606;44.062;2.986;2023-05-07T12:30:41;3.15;;;1.05;;
75928;SDS011;64606;44.062;2.986;2023-05-07T12:33:08;2.50;;;1.00;;
75928;SDS011;64606;44.062;2.986;2023-05-07T12:35:38;2.92;;;1.00;;
75928;SDS011;64606;44.062;2.986;2023-05-07T12:38:08;2.97;;;1.08;;
75928;SDS011;64606;44.062;2.986;2023-05-07T12:40:42;2.67;;;1.02;;
75928;SDS011;64606;44.062;2.986;2023-05-07T12:43:23;3.72;;;1.00;;
75928;SDS011;64606;44.062;2.986;2023-05-07T12:45:50;3.20;;;1.02;;
75928;SDS011;64606;44.062;2.986;2023-05-07T12:48:16;5.47;;;1.27;;
75928;SDS011;64606;44.062;2.986;2023-05-07T12:50:42;4.35;;;1.20;;
75928;SDS011;64606;44.062;2.986;2023-05-07T12:53:09;4.25;;;1.13;;
75928;SDS011;64606;44.062;2.986;2023-05-07T12:55:49;4.15;;;1.33;;
75928;SDS011;64606;44.062;2.986;2023-05-07T12:58:17;5.53;;;1.00;;
75928;SDS011;64606;44.062;2.986;2023-05-07T13:00:43;3.60;;;1.05;;
75928;SDS011;64606;44.062;2.986;2023-05-07T13:03:10;6.90;;;1.52;;
75928;SDS011;64606;44.062;2.986;2023-05-07T13:05:37;6.80;;;1.23;;
75928;SDS011;64606;44.062;2.986;2023-05-07T13:08:03;5.97;;;1.42;;
75928;SDS011;64606;44.062;2.986;2023-05-07T13:10:29;3.08;;;0.93;;
75928;SDS011;64606;44.062;2.986;2023-05-07T13:12:55;7.45;;;1.35;;
75928;SDS011;64606;44.062;2.986;2023-05-07T13:15:21;6.53;;;1.40;;
75928;SDS011;64606;44.062;2.986;2023-05-07T13:17:48;7.22;;;1.40;;
75928;SDS011;64606;44.062;2.986;2023-05-07T13:20:14;4.95;;;1.38;;
75928;SDS011;64606;44.062;2.986;2023-05-07T13:22:40;5.18;;;0.90;;
75928;SDS011;64606;44.062;2.986;2023-05-07T13:25:07;3.85;;;1.20;;
75928;SDS011;64606;44.062;2.986;2023-05-07T13:27:33;4.38;;;1.17;;
75928;SDS011;64606;44.062;2.986;2023-05-07T13:30:02;4.15;;;1.10;;
75928;SDS011;64606;44.062;2.986;2023-05-07T13:32:28;5.35;;;1.08;;
75928;SDS011;64606;44.062;2.986;2023-05-07T13:34:54;3.53;;;0.90;;
75928;SDS011;64606;44.062;2.986;2023-05-07T13:37:20;3.10;;;1.23;;
75928;SDS011;64606;44.062;2.986;2023-05-07T13:39:46;2.25;;;0.88;;
75928;SDS011;64606;44.062;2.986;2023-05-07T13:42:13;2.30;;;0.73;;
75928;SDS011;64606;44.062;2.986;2023-05-07T13:44:39;3.10;;;0.98;;
75928;SDS011;64606;44.062;2.986;2023-05-07T13:47:05;4.65;;;1.10;;
75928;SDS011;64606;44.062;2.986;2023-05-07T13:49:31;5.13;;;1.20;;
75928;SDS011;64606;44.062;2.986;2023-05-07T13:51:58;3.53;;;1.20;;
75928;SDS011;64606;44.062;2.986;2023-05-07T13:54:24;5.22;;;1.02;;
75928;SDS011;64606;44.062;2.986;2023-05-07T13:56:50;1.85;;;0.98;;
75928;SDS011;64606;44.062;2.986;2023-05-07T13:59:16;7.05;;;1.45;;
75928;SDS011;64606;44.062;2.986;2023-05-07T14:01:42;4.45;;;1.10;;
75928;SDS011;64606;44.062;2.986;2023-05-07T14:04:08;3.30;;;1.00;;
75928;SDS011;64606;44.062;2.986;2023-05-07T14:06:34;4.63;;;1.20;;
75928;SDS011;64606;44.062;2.986;2023-05-07T14:09:01;4.90;;;1.10;;
75928;SDS011;64606;44.062;2.986;2023-05-07T14:11:27;3.40;;;1.10;;
75928;SDS011;64606;44.062;2.986;2023-05-07T14:13:53;4.28;;;1.38;;
75928;SDS011;64606;44.062;2.986;2023-05-07T14:16:19;3.72;;;1.20;;
75928;SDS011;64606;44.062;2.986;2023-05-07T14:18:45;5.88;;;1.05;;
75928;SDS011;64606;44.062;2.986;2023-05-07T14:21:11;2.65;;;1.08;;
75928;SDS011;64606;44.062;2.986;2023-05-07T14:23:38;4.25;;;1.08;;
75928;SDS011;64606;44.062;2.986;2023-05-07T14:26:04;2.90;;;1.00;;
75928;SDS011;64606;44.062;2.986;2023-05-07T14:28:30;3.75;;;1.02;;
75928;SDS011;64606;44.062;2.986;2023-05-07T14:30:56;2.38;;;1.02;;
75928;SDS011;64606;44.062;2.986;2023-05-07T14:33:22;5.50;;;1.10;;
75928;SDS011;64606;44.062;2.986;2023-05-07T14:35:48;3.78;;;0.90;;
75928;SDS011;64606;44.062;2.986;2023-05-07T14:38:15;3.20;;;0.85;;
75928;SDS011;64606;44.062;2.986;2023-05-07T14:40:41;4.15;;;0.80;;
75928;SDS011;64606;44.062;2.986;2023-05-07T14:43:07;2.92;;;0.90;;
75928;SDS011;64606;44.062;2.986;2023-05-07T14:45:33;2.95;;;0.88;;
75928;SDS011;64606;44.062;2.986;2023-05-07T14:47:59;4.78;;;1.00;;
75928;SDS011;64606;44.062;2.986;2023-05-07T14:50:25;2.42;;;0.75;;
75928;SDS011;64606;44.062;2.986;2023-05-07T14:52:51;2.95;;;1.00;;
75928;SDS011;64606;44.062;2.986;2023-05-07T14:55:17;6.32;;;1.00;;
75928;SDS011;64606;44.062;2.986;2023-05-07T14:57:44;4.30;;;1.08;;
75928;SDS011;64606;44.062;2.986;2023-05-07T15:00:10;6.72;;;1.48;;